Terminal Aerodrome Forecast
Issued by NWS Omaha/Valley, NE

Home | Current Version | Previous Version | Graphics & Text | Print | Product List | Glossary On
Versions: 1 2 3 4 5 6 7 8 9 10 11 12 13 14 15 16 17 18 19 20 21 22 23 24 25 26 27 28
000
FTUS43 KOAX 240604 AAA
TAFOFK
TAF AMD
KOFK 240604Z 2406/2506 01008KT 6SM -RA SCT035 BKN060
      TEMPO 2407/2410 4SM -RA BR BKN025
     FM241000 01008KT 6SM -SHRA OVC015
     FM241200 36013KT 6SM -SHRA OVC004
     FM241500 02013G20KT 5SM -SHRA OVC008=

USA.gov is the U.S. government's official web portal to all federal, state and local government web resources and services.